createdAt,value
2019-03-29T00:00:32.240Z,7.13
2019-03-29T00:01:31.890Z,7.08
2019-03-29T00:02:31.916Z,7.15
2019-03-29T00:03:31.898Z,7.09
2019-03-29T00:04:31.878Z,7.08
2019-03-29T00:05:31.850Z,7.09
2019-03-29T00:06:31.838Z,7.13
2019-03-29T00:07:39.503Z,7.07
2019-03-29T00:08:32.814Z,7.12
2019-03-29T00:09:31.810Z,7.12
2019-03-29T00:10:31.795Z,7.22
2019-03-29T00:11:31.787Z,7.19
2019-03-29T00:12:32.427Z,7.13
2019-03-29T00:13:31.792Z,7.04
2019-03-29T00:14:31.751Z,7.12
2019-03-29T00:15:31.746Z,7.12
2019-03-29T00:16:31.735Z,7.12
2019-03-29T00:17:31.743Z,7.09
2019-03-29T00:18:31.714Z,7.08
2019-03-29T00:19:31.701Z,7.12
2019-03-29T00:20:31.693Z,7.12
2019-03-29T00:21:31.678Z,7.04
2019-03-29T00:22:31.670Z,7.08
2019-03-29T00:23:31.695Z,7.22
2019-03-29T00:24:31.654Z,7.22
2019-03-29T00:25:32.434Z,7.22
2019-03-29T00:26:31.624Z,7.20
2019-03-29T00:27:31.639Z,7.07
2019-03-29T00:28:31.605Z,7.05
2019-03-29T00:29:31.598Z,7.13
2019-03-29T00:30:31.588Z,7.07
2019-03-29T00:31:31.609Z,7.16
2019-03-29T00:32:31.931Z,7.08
2019-03-29T00:33:31.553Z,7.08
2019-03-29T00:34:31.583Z,7.16
2019-03-29T00:35:31.532Z,7.09
2019-03-29T00:36:31.521Z,7.09
2019-03-29T00:37:31.516Z,7.05
2019-03-29T00:38:31.509Z,7.13
2019-03-29T00:39:31.522Z,7.12
2019-03-29T00:40:31.546Z,7.01
2019-03-29T00:41:31.479Z,7.05
2019-03-29T00:42:31.459Z,7.01
2019-03-29T00:43:31.452Z,6.99
2019-03-29T00:44:31.447Z,6.98
2019-03-29T00:45:31.464Z,6.95
2019-03-29T00:46:31.426Z,6.99
2019-03-29T00:47:31.422Z,6.95
2019-03-29T00:48:31.410Z,6.91
2019-03-29T00:49:31.391Z,6.98
2019-03-29T00:50:31.414Z,6.94
2019-03-29T00:51:31.366Z,7.01
2019-03-29T00:52:31.357Z,6.99
2019-03-29T00:53:31.346Z,6.90
2019-03-29T00:54:31.341Z,6.94
2019-03-29T00:55:31.329Z,6.97
2019-03-29T00:56:31.341Z,6.94
2019-03-29T00:57:31.313Z,6.95
2019-03-29T00:58:31.293Z,6.91
2019-03-29T00:59:31.289Z,6.87
2019-03-29T01:00:31.741Z,6.91
2019-03-29T01:01:31.268Z,6.94
2019-03-29T01:02:31.305Z,6.91
2019-03-29T01:03:31.242Z,6.80
2019-03-29T01:04:31.248Z,6.87
2019-03-29T01:05:31.227Z,6.89
2019-03-29T01:06:31.213Z,6.90
2019-03-29T01:07:31.200Z,6.94
2019-03-29T01:08:31.225Z,6.89
2019-03-29T01:09:31.188Z,6.83
2019-03-29T01:10:31.172Z,6.77
2019-03-29T01:11:31.167Z,6.77
2019-03-29T01:12:31.209Z,6.72
2019-03-29T01:13:31.137Z,6.66
2019-03-29T01:14:31.134Z,6.71
2019-03-29T01:15:31.118Z,6.76
2019-03-29T01:16:31.112Z,6.81
2019-03-29T01:17:31.135Z,6.81
2019-03-29T01:18:31.100Z,6.80
2019-03-29T01:19:31.086Z,6.89
2019-03-29T01:20:31.069Z,6.84
2019-03-29T01:21:31.083Z,6.72
2019-03-29T01:22:31.340Z,6.81
2019-03-29T01:23:31.037Z,6.66
2019-03-29T01:24:31.028Z,6.68
2019-03-29T01:25:31.018Z,6.66
2019-03-29T01:26:31.015Z,6.68
2019-03-29T01:27:31.024Z,6.83
2019-03-29T01:28:31.020Z,6.73
2019-03-29T01:29:31.063Z,6.71
2019-03-29T01:30:30.965Z,6.65
2019-03-29T01:31:30.956Z,6.47
2019-03-29T01:32:30.950Z,6.41
2019-03-29T01:33:30.987Z,6.29
2019-03-29T01:34:30.925Z,6.19
2019-03-29T01:35:30.916Z,6.04
2019-03-29T01:36:30.901Z,6.10
2019-03-29T01:37:30.893Z,6.07
2019-03-29T01:38:30.909Z,6.01
2019-03-29T01:39:30.871Z,5.95
2019-03-29T01:40:30.861Z,5.89
2019-03-29T01:41:30.854Z,5.77
2019-03-29T01:42:30.849Z,5.74
2019-03-29T01:43:30.900Z,5.67
2019-03-29T01:44:30.836Z,5.66
2019-03-29T01:45:31.398Z,5.63
2019-03-29T01:46:30.800Z,5.56
2019-03-29T01:47:30.792Z,5.59
2019-03-29T01:48:30.794Z,5.57
2019-03-29T01:49:30.799Z,5.68
2019-03-29T01:50:30.768Z,5.56
2019-03-29T01:51:30.763Z,5.64
2019-03-29T01:52:31.637Z,5.55
2019-03-29T01:53:30.754Z,5.49
2019-03-29T01:54:31.031Z,5.45
2019-03-29T01:55:30.716Z,5.30
2019-03-29T01:56:30.705Z,5.25
2019-03-29T01:57:30.689Z,5.23
2019-03-29T01:58:30.700Z,5.32
2019-03-29T01:59:30.665Z,5.46
2019-03-29T02:00:30.656Z,5.64
2019-03-29T02:01:30.644Z,5.78
2019-03-29T02:02:30.632Z,5.86
2019-03-29T02:03:30.656Z,5.98
2019-03-29T02:04:30.623Z,5.95
2019-03-29T02:05:30.604Z,5.93
2019-03-29T02:06:30.665Z,6.01
2019-03-29T02:07:30.591Z,5.91
2019-03-29T02:08:35.977Z,5.82
2019-03-29T02:09:31.567Z,5.82
2019-03-29T02:10:30.561Z,5.81
2019-03-29T02:11:30.544Z,5.77
2019-03-29T02:12:30.557Z,5.96
2019-03-29T02:13:30.525Z,5.93
2019-03-29T02:14:30.530Z,6.00
2019-03-29T02:15:30.499Z,5.95
2019-03-29T02:16:30.493Z,6.00
2019-03-29T02:17:30.482Z,6.07
2019-03-29T02:18:30.501Z,6.01
2019-03-29T02:19:31.238Z,6.04
2019-03-29T02:20:30.454Z,6.00
2019-03-29T02:21:30.449Z,5.96
2019-03-29T02:22:30.432Z,5.89
2019-03-29T02:23:30.939Z,5.89
2019-03-29T02:24:30.410Z,5.92
2019-03-29T02:25:30.399Z,5.89
2019-03-29T02:26:30.421Z,5.85
2019-03-29T02:27:30.378Z,5.83
2019-03-29T02:28:30.369Z,5.92
2019-03-29T02:29:30.363Z,5.88
2019-03-29T02:30:31.969Z,5.83
2019-03-29T02:31:30.347Z,5.82
2019-03-29T02:32:30.332Z,5.75
2019-03-29T02:33:30.317Z,5.63
2019-03-29T02:34:30.307Z,5.59
2019-03-29T02:35:30.333Z,5.35
2019-03-29T02:36:30.352Z,5.38
2019-03-29T02:37:30.298Z,5.32
2019-03-29T02:38:30.269Z,5.35
2019-03-29T02:39:30.254Z,5.53
2019-03-29T02:40:30.276Z,5.52
2019-03-29T02:41:30.238Z,5.60
2019-03-29T02:42:30.227Z,5.70
2019-03-29T02:43:30.218Z,5.56
2019-03-29T02:44:30.230Z,5.50
2019-03-29T02:45:30.686Z,5.55
2019-03-29T02:46:30.206Z,5.56
2019-03-29T02:47:30.177Z,5.68
2019-03-29T02:48:30.186Z,5.78
2019-03-29T02:49:30.159Z,5.98
2019-03-29T02:50:30.170Z,6.01
2019-03-29T02:51:30.218Z,6.01
2019-03-29T02:52:30.128Z,6.00
2019-03-29T02:53:30.128Z,6.01
2019-03-29T02:54:30.101Z,6.03
2019-03-29T02:55:30.097Z,5.98
2019-03-29T02:56:30.207Z,5.92
2019-03-29T02:57:30.075Z,5.91
2019-03-29T02:58:30.062Z,5.82
2019-03-29T02:59:30.076Z,5.89
2019-03-29T03:00:30.058Z,5.85
2019-03-29T03:01:30.044Z,5.70
2019-03-29T03:02:30.052Z,5.78
2019-03-29T03:03:30.029Z,5.81
2019-03-29T03:04:30.028Z,5.75
2019-03-29T03:05:29.990Z,5.86
2019-03-29T03:06:30.017Z,5.86
2019-03-29T03:07:29.978Z,5.82
2019-03-29T03:08:32.878Z,5.71
2019-03-29T03:09:29.958Z,5.70
2019-03-29T03:10:29.940Z,5.77
2019-03-29T03:11:30.327Z,5.81
2019-03-29T03:12:30.096Z,5.78
2019-03-29T03:13:30.295Z,5.70
2019-03-29T03:14:30.118Z,5.59
2019-03-29T03:15:30.093Z,5.66
2019-03-29T03:16:30.129Z,5.70
2019-03-29T03:17:30.073Z,5.78
2019-03-29T03:18:30.178Z,5.74
2019-03-29T03:19:30.334Z,5.75
2019-03-29T03:20:30.149Z,5.85
2019-03-29T03:21:30.653Z,5.86
2019-03-29T03:22:30.047Z,5.82
2019-03-29T03:23:30.062Z,5.81
2019-03-29T03:24:30.015Z,5.82
2019-03-29T03:25:30.313Z,5.81
2019-03-29T03:26:30.023Z,5.73
2019-03-29T03:27:30.009Z,5.77
2019-03-29T03:28:30.019Z,5.66
2019-03-29T03:29:29.956Z,5.70
2019-03-29T03:30:29.984Z,5.68
2019-03-29T03:31:30.190Z,5.68
2019-03-29T03:32:29.990Z,5.70
2019-03-29T03:33:29.947Z,5.66
2019-03-29T03:34:29.964Z,5.66
2019-03-29T03:35:30.088Z,5.64
2019-03-29T03:36:29.962Z,5.52
2019-03-29T03:37:30.151Z,5.48
2019-03-29T03:38:29.898Z,5.35
2019-03-29T03:39:31.975Z,5.25
2019-03-29T03:40:29.865Z,5.25
2019-03-29T03:41:29.854Z,5.45
2019-03-29T03:42:29.652Z,5.52
2019-03-29T03:43:29.733Z,5.32
2019-03-29T03:44:29.651Z,5.35
2019-03-29T03:45:29.623Z,5.32
2019-03-29T03:46:29.626Z,5.30
2019-03-29T03:47:29.683Z,5.32
2019-03-29T03:48:29.604Z,5.22
2019-03-29T03:49:29.602Z,5.19
2019-03-29T03:50:29.577Z,5.05
2019-03-29T03:51:29.560Z,5.05
2019-03-29T03:52:29.680Z,4.88
2019-03-29T03:53:29.547Z,4.80
2019-03-29T03:54:29.538Z,4.70
2019-03-29T03:55:29.529Z,4.61
2019-03-29T03:56:29.530Z,4.51
2019-03-29T03:57:29.503Z,4.47
2019-03-29T03:58:29.566Z,4.40
2019-03-29T03:59:29.491Z,4.33
2019-03-29T04:00:29.541Z,4.34
2019-03-29T04:01:29.466Z,4.26
2019-03-29T04:02:29.534Z,4.29
2019-03-29T04:03:29.566Z,4.34
2019-03-29T04:04:29.429Z,4.42
2019-03-29T04:05:29.580Z,4.40
2019-03-29T04:06:29.406Z,4.39
2019-03-29T04:07:29.407Z,4.32
2019-03-29T04:08:29.390Z,4.28
2019-03-29T04:09:29.382Z,4.34
2019-03-29T04:10:29.360Z,4.42
2019-03-29T04:11:29.448Z,4.50
2019-03-29T04:12:29.342Z,4.52
2019-03-29T04:13:29.434Z,4.51
2019-03-29T04:14:29.319Z,4.54
2019-03-29T04:15:29.328Z,4.52
2019-03-29T04:16:29.315Z,4.50
2019-03-29T04:17:29.298Z,4.42
2019-03-29T04:18:29.376Z,4.29
2019-03-29T04:19:29.279Z,4.34
2019-03-29T04:20:29.286Z,4.21
2019-03-29T04:21:29.247Z,4.12
2019-03-29T04:22:29.245Z,4.03
2019-03-29T04:23:29.326Z,4.03
2019-03-29T04:24:29.218Z,4.14
2019-03-29T04:25:29.217Z,4.14
2019-03-29T04:26:29.194Z,4.34
2019-03-29T04:27:29.200Z,4.32
2019-03-29T04:28:29.316Z,4.33
2019-03-29T04:29:29.180Z,4.32
2019-03-29T04:30:29.179Z,4.29
2019-03-29T04:31:29.155Z,4.29
2019-03-29T04:32:29.145Z,4.28
2019-03-29T04:33:29.236Z,4.24
2019-03-29T04:34:29.125Z,4.19
2019-03-29T04:35:29.119Z,4.19
2019-03-29T04:36:29.377Z,4.26
2019-03-29T04:37:29.112Z,4.25
2019-03-29T04:38:29.170Z,4.25
2019-03-29T04:39:29.080Z,4.32
2019-03-29T04:40:29.074Z,4.14
2019-03-29T04:41:29.059Z,4.07
2019-03-29T04:42:29.043Z,4.14
2019-03-29T04:43:29.098Z,4.06
2019-03-29T04:44:29.095Z,3.92
2019-03-29T04:45:29.008Z,3.96
2019-03-29T04:46:29.004Z,3.97
2019-03-29T04:47:28.993Z,4.01
2019-03-29T04:48:28.979Z,4.03
2019-03-29T04:49:28.971Z,3.97
2019-03-29T04:50:29.036Z,4.00
2019-03-29T04:51:29.032Z,4.10
2019-03-29T04:52:28.959Z,4.19
2019-03-29T04:53:28.937Z,4.14
2019-03-29T04:54:28.921Z,4.10
2019-03-29T04:55:28.909Z,4.10
2019-03-29T04:56:28.902Z,4.08
2019-03-29T04:57:28.978Z,3.98
2019-03-29T04:58:28.885Z,3.97
2019-03-29T04:59:28.827Z,3.96
2019-03-29T05:00:28.819Z,3.94
2019-03-29T05:01:28.804Z,3.96
2019-03-29T05:02:28.845Z,4.00
2019-03-29T05:03:28.778Z,3.98
2019-03-29T05:04:28.782Z,3.98
2019-03-29T05:05:28.783Z,4.08
2019-03-29T05:06:28.800Z,4.04
2019-03-29T05:07:28.746Z,4.04
2019-03-29T05:08:28.737Z,4.15
2019-03-29T05:09:28.801Z,4.08
2019-03-29T05:10:28.717Z,4.16
2019-03-29T05:11:28.722Z,4.14
2019-03-29T05:12:28.695Z,4.10
2019-03-29T05:13:28.690Z,4.08
2019-03-29T05:14:28.729Z,3.96
2019-03-29T05:15:28.680Z,3.97
2019-03-29T05:16:28.657Z,3.96
2019-03-29T05:17:28.688Z,3.79
2019-03-29T05:18:28.638Z,3.70
2019-03-29T05:19:28.669Z,3.78
2019-03-29T05:20:28.609Z,3.79
2019-03-29T05:21:28.604Z,3.76
2019-03-29T05:22:28.613Z,3.80
2019-03-29T05:23:28.625Z,3.78
2019-03-29T05:24:28.622Z,3.79
2019-03-29T05:25:28.555Z,3.79
2019-03-29T05:26:28.553Z,3.70
2019-03-29T05:27:28.540Z,3.76
2019-03-29T05:28:28.538Z,3.65
2019-03-29T05:29:28.529Z,3.50
2019-03-29T05:30:28.551Z,3.42
2019-03-29T05:31:28.509Z,3.50
2019-03-29T05:32:28.499Z,3.65
2019-03-29T05:33:28.482Z,3.76
2019-03-29T05:34:28.520Z,3.76
2019-03-29T05:35:28.453Z,3.96
2019-03-29T05:36:28.458Z,3.97
2019-03-29T05:37:28.440Z,4.03
2019-03-29T05:38:28.445Z,4.16
2019-03-29T05:39:28.459Z,4.12
2019-03-29T05:40:34.784Z,4.29
2019-03-29T05:41:29.401Z,4.43
2019-03-29T05:42:28.385Z,4.42
2019-03-29T05:43:28.505Z,4.46
2019-03-29T05:44:28.372Z,4.47
2019-03-29T05:45:28.350Z,4.59
2019-03-29T05:46:28.358Z,4.75
2019-03-29T05:47:28.374Z,4.83
2019-03-29T05:48:28.368Z,4.86
2019-03-29T05:49:28.313Z,5.05
2019-03-29T05:50:28.302Z,5.17
2019-03-29T05:51:28.293Z,5.34
2019-03-29T05:52:28.333Z,5.45
2019-03-29T05:53:28.281Z,5.57
2019-03-29T05:54:28.936Z,5.55
2019-03-29T05:55:32.902Z,5.66
2019-03-29T05:56:29.248Z,5.78
2019-03-29T05:57:28.283Z,5.81
2019-03-29T05:58:28.312Z,5.96
2019-03-29T05:59:28.255Z,6.06
2019-03-29T06:00:28.938Z,6.21
2019-03-29T06:01:28.199Z,6.35
2019-03-29T06:02:28.329Z,6.46
2019-03-29T06:03:28.257Z,6.50
2019-03-29T06:04:28.171Z,6.68
2019-03-29T06:05:28.175Z,6.62
2019-03-29T06:06:28.154Z,6.66
2019-03-29T06:07:28.131Z,6.81
2019-03-29T06:08:28.115Z,7.12
2019-03-29T06:09:28.108Z,7.12
2019-03-29T06:10:28.124Z,7.19
2019-03-29T06:11:29.967Z,7.27
2019-03-29T06:12:28.135Z,7.44
2019-03-29T06:13:28.059Z,7.55
2019-03-29T06:14:28.062Z,7.66
2019-03-29T06:15:28.050Z,7.72
2019-03-29T06:16:38.344Z,7.67
2019-03-29T06:17:29.056Z,7.72
2019-03-29T06:18:28.013Z,7.92
2019-03-29T06:19:27.996Z,7.94
2019-03-29T06:20:27.984Z,7.99
2019-03-29T06:21:27.976Z,8.00
2019-03-29T06:22:27.966Z,8.14
2019-03-29T06:23:27.999Z,8.37
2019-03-29T06:24:27.948Z,8.33
2019-03-29T06:25:27.947Z,8.58
2019-03-29T06:26:28.448Z,8.68
2019-03-29T06:27:28.437Z,8.76
2019-03-29T06:28:29.966Z,8.75
2019-03-29T06:29:27.938Z,8.76
2019-03-29T06:30:27.883Z,8.83
2019-03-29T06:31:29.494Z,8.88
2019-03-29T06:32:28.441Z,8.99
2019-03-29T06:33:27.885Z,9.01
2019-03-29T06:34:27.857Z,9.10
2019-03-29T06:35:27.842Z,9.30
2019-03-29T06:36:27.830Z,9.48
2019-03-29T06:37:27.810Z,9.45
2019-03-29T06:38:27.808Z,9.56
2019-03-29T06:39:28.453Z,9.68
2019-03-29T06:40:27.781Z,9.58
2019-03-29T06:41:27.808Z,9.64
2019-03-29T06:42:27.766Z,9.71
2019-03-29T06:43:34.486Z,9.75
2019-03-29T06:44:27.736Z,9.75
2019-03-29T06:45:28.445Z,9.70
2019-03-29T06:46:27.717Z,9.83
2019-03-29T06:47:27.755Z,9.93
2019-03-29T06:48:29.499Z,10.18
2019-03-29T06:49:27.749Z,10.26
2019-03-29T06:50:27.675Z,10.37
2019-03-29T06:51:27.669Z,10.60
2019-03-29T06:52:27.657Z,10.52
2019-03-29T06:53:29.450Z,10.43
2019-03-29T06:54:27.635Z,10.71
2019-03-29T06:55:28.451Z,10.70
2019-03-29T06:56:27.661Z,10.89
2019-03-29T06:57:27.967Z,10.71
2019-03-29T06:58:28.431Z,10.65
2019-03-29T06:59:27.594Z,10.80
2019-03-29T07:00:27.658Z,10.86
2019-03-29T07:01:27.633Z,11.01
2019-03-29T07:02:27.553Z,11.24
2019-03-29T07:03:29.445Z,11.11
2019-03-29T07:04:29.447Z,11.11
2019-03-29T07:05:27.521Z,11.21
2019-03-29T07:06:30.750Z,11.43
2019-03-29T07:07:28.001Z,11.52
2019-03-29T07:08:29.445Z,11.75
2019-03-29T07:09:27.511Z,11.96
2019-03-29T07:10:27.475Z,11.74
2019-03-29T07:11:27.456Z,11.61
2019-03-29T07:12:29.484Z,11.68
2019-03-29T07:13:27.943Z,11.77
2019-03-29T07:14:27.939Z,11.82
2019-03-29T07:15:27.440Z,11.93
2019-03-29T07:16:27.406Z,12.11
2019-03-29T07:17:27.396Z,12.26
2019-03-29T07:18:27.386Z,12.39
2019-03-29T07:19:27.416Z,12.66
2019-03-29T07:20:27.962Z,12.46
2019-03-29T07:21:27.353Z,12.48
2019-03-29T07:22:27.339Z,12.27
2019-03-29T07:23:27.334Z,12.24
2019-03-29T07:24:27.350Z,12.27
2019-03-29T07:25:27.316Z,12.60
2019-03-29T07:26:27.299Z,13.00
2019-03-29T07:27:43.511Z,12.85
2019-03-29T07:28:28.997Z,12.99
2019-03-29T07:30:36.006Z,13.21
2019-03-29T07:31:35.994Z,13.21
2019-03-29T07:32:35.989Z,12.79
2019-03-29T07:33:35.984Z,12.67
2019-03-29T07:34:35.983Z,12.81
2019-03-29T07:35:35.950Z,12.99
2019-03-29T07:36:35.940Z,13.06
2019-03-29T07:37:35.929Z,13.25
2019-03-29T07:38:35.919Z,13.36
2019-03-29T07:39:35.930Z,13.44
2019-03-29T07:40:35.901Z,13.40
2019-03-29T07:41:35.892Z,13.20
2019-03-29T07:42:35.875Z,13.30
2019-03-29T07:43:35.866Z,13.30
2019-03-29T07:44:35.913Z,13.69
2019-03-29T07:45:35.840Z,13.77
2019-03-29T07:46:35.838Z,13.59
2019-03-29T07:47:35.834Z,13.24
2019-03-29T07:48:35.822Z,13.67
2019-03-29T07:49:35.853Z,13.89
2019-03-29T07:50:35.787Z,13.88
2019-03-29T07:51:35.776Z,14.17
2019-03-29T07:52:35.768Z,14.43
2019-03-29T07:53:35.842Z,14.78
2019-03-29T07:54:35.776Z,15.05
2019-03-29T07:55:37.452Z,15.06
2019-03-29T07:56:35.746Z,14.98
2019-03-29T07:57:35.715Z,15.20
2019-03-29T07:58:35.709Z,15.45
2019-03-29T07:59:35.723Z,15.70
2019-03-29T08:00:35.690Z,15.68
2019-03-29T08:01:35.941Z,16.03
2019-03-29T08:02:35.667Z,15.96
2019-03-29T08:03:35.668Z,15.43
2019-03-29T08:04:35.663Z,15.20
2019-03-29T08:05:35.653Z,15.31
2019-03-29T08:06:35.623Z,15.59
2019-03-29T08:07:35.619Z,15.99
2019-03-29T08:08:35.607Z,15.99
2019-03-29T08:09:35.623Z,15.96
2019-03-29T08:10:35.578Z,16.25
2019-03-29T08:11:46.095Z,16.55
2019-03-29T08:12:36.551Z,16.77
2019-03-29T08:13:35.551Z,16.86
2019-03-29T08:14:35.565Z,16.81
2019-03-29T08:15:35.529Z,16.88
2019-03-29T08:16:35.517Z,16.56
2019-03-29T08:17:35.507Z,16.62
2019-03-29T08:18:35.492Z,16.75
2019-03-29T08:19:37.199Z,17.00
2019-03-29T08:20:41.745Z,17.28
2019-03-29T08:21:36.492Z,17.63
2019-03-29T08:22:35.464Z,17.66
2019-03-29T08:23:35.445Z,17.91
2019-03-29T08:24:35.462Z,18.06
2019-03-29T08:25:35.416Z,17.97
2019-03-29T08:26:35.422Z,17.94
2019-03-29T08:27:35.397Z,17.70
2019-03-29T08:28:35.386Z,17.62
2019-03-29T08:29:35.469Z,17.74
2019-03-29T08:30:35.361Z,18.09
2019-03-29T08:31:35.352Z,18.28
2019-03-29T08:32:35.345Z,17.79
2019-03-29T08:33:35.349Z,17.87
2019-03-29T08:34:36.053Z,18.06
2019-03-29T08:35:35.341Z,18.33
2019-03-29T08:36:35.302Z,18.74
2019-03-29T08:37:35.295Z,19.11
2019-03-29T08:38:35.284Z,19.23
2019-03-29T08:39:35.267Z,18.68
2019-03-29T08:40:35.298Z,18.57
2019-03-29T08:41:35.246Z,18.94
2019-03-29T08:42:35.237Z,19.21
2019-03-29T08:43:35.233Z,19.15
2019-03-29T08:44:35.321Z,19.21
2019-03-29T08:45:35.235Z,19.02
2019-03-29T08:46:35.245Z,18.44
2019-03-29T08:47:35.188Z,18.28
2019-03-29T08:48:35.195Z,18.34
2019-03-29T08:49:35.186Z,18.27
2019-03-29T08:50:35.177Z,18.54
2019-03-29T08:51:35.153Z,18.83
2019-03-29T08:52:35.146Z,19.13
2019-03-29T08:53:35.122Z,19.60
2019-03-29T08:54:35.118Z,19.55
2019-03-29T08:55:45.584Z,18.79
2019-03-29T08:56:36.084Z,18.42
2019-03-29T08:57:35.079Z,18.18
2019-03-29T08:58:35.071Z,18.10
2019-03-29T08:59:35.064Z,17.97
2019-03-29T09:00:35.068Z,18.03
2019-03-29T09:01:35.069Z,18.47
2019-03-29T09:02:35.023Z,18.18
2019-03-29T09:03:35.013Z,18.29
2019-03-29T09:04:35.001Z,18.22
2019-03-29T09:05:35.022Z,18.49
2019-03-29T09:06:34.983Z,19.20
2019-03-29T09:07:44.690Z,19.84
2019-03-29T09:08:35.964Z,20.59
2019-03-29T09:09:34.962Z,20.76
2019-03-29T09:10:34.974Z,21.09
2019-03-29T09:11:34.923Z,20.59
2019-03-29T09:12:34.928Z,20.20
2019-03-29T09:13:34.917Z,20.15
2019-03-29T09:14:34.929Z,20.31
2019-03-29T09:15:34.920Z,19.95
2019-03-29T09:16:34.877Z,19.24
2019-03-29T09:17:34.862Z,19.28
2019-03-29T09:18:34.855Z,19.25
2019-03-29T09:19:34.850Z,19.10
2019-03-29T09:20:34.958Z,19.39
2019-03-29T09:21:34.822Z,20.00
2019-03-29T09:22:34.814Z,20.53
2019-03-29T09:23:34.803Z,20.83
2019-03-29T09:24:34.788Z,20.79
2019-03-29T09:25:34.822Z,20.54
2019-03-29T09:26:34.771Z,19.65
2019-03-29T09:27:34.785Z,19.21
2019-03-29T09:28:34.753Z,19.60
2019-03-29T09:29:34.748Z,19.47
2019-03-29T09:30:34.755Z,19.68
2019-03-29T09:31:34.712Z,19.86
2019-03-29T09:32:34.703Z,19.54
2019-03-29T09:33:34.706Z,19.24
2019-03-29T09:34:34.689Z,19.57
2019-03-29T09:35:34.712Z,19.39
2019-03-29T09:36:34.664Z,19.18
2019-03-29T09:37:34.649Z,19.08
2019-03-29T09:38:34.655Z,19.40
2019-03-29T09:39:34.627Z,19.57
2019-03-29T09:40:34.646Z,19.60
2019-03-29T09:41:34.612Z,19.75
2019-03-29T09:42:34.602Z,20.23
2019-03-29T09:43:34.587Z,20.79
2019-03-29T09:44:34.580Z,21.30
2019-03-29T09:45:34.566Z,21.67
2019-03-29T09:46:34.693Z,21.56
2019-03-29T09:47:40.094Z,21.83
2019-03-29T09:48:35.547Z,21.71
2019-03-29T09:49:34.525Z,21.34
2019-03-29T09:50:34.518Z,20.79
2019-03-29T09:51:36.118Z,20.87
2019-03-29T09:52:34.498Z,20.86
2019-03-29T09:53:34.498Z,20.80
2019-03-29T09:54:34.474Z,20.84
2019-03-29T09:55:34.467Z,21.11
2019-03-29T09:56:38.946Z,21.36
2019-03-29T09:57:37.919Z,21.26
2019-03-29T09:58:34.440Z,21.17
2019-03-29T09:59:34.448Z,21.20
2019-03-29T10:00:34.405Z,21.60
2019-03-29T10:01:34.515Z,21.08
2019-03-29T10:02:34.379Z,21.50
2019-03-29T10:03:34.451Z,21.61
2019-03-29T10:04:34.361Z,21.67
2019-03-29T10:05:34.362Z,21.53
2019-03-29T10:06:34.341Z,21.66
2019-03-29T10:07:34.338Z,22.01
2019-03-29T10:08:34.413Z,22.25
2019-03-29T10:09:34.311Z,22.54
2019-03-29T10:10:34.830Z,22.67
2019-03-29T10:11:34.321Z,23.04
2019-03-29T10:12:43.463Z,23.42
2019-03-29T10:13:35.290Z,24.05
2019-03-29T10:14:34.257Z,24.67
2019-03-29T10:15:34.245Z,24.91
2019-03-29T10:16:34.278Z,25.38
2019-03-29T10:17:34.228Z,25.15
2019-03-29T10:18:34.216Z,24.16
2019-03-29T10:19:34.205Z,23.94
2019-03-29T10:20:34.194Z,24.07
2019-03-29T10:21:34.371Z,23.24
2019-03-29T10:22:34.218Z,22.87
2019-03-29T10:23:34.188Z,23.11
2019-03-29T10:24:34.186Z,22.72
2019-03-29T10:25:34.155Z,22.64
2019-03-29T10:26:34.160Z,22.86
2019-03-29T10:27:34.123Z,23.15
2019-03-29T10:28:34.118Z,23.79
2019-03-29T10:29:34.113Z,23.77
2019-03-29T10:30:34.123Z,24.12
2019-03-29T10:31:34.115Z,24.04
2019-03-29T10:32:34.073Z,23.67
2019-03-29T10:33:34.072Z,23.70
2019-03-29T10:34:37.320Z,23.43
2019-03-29T10:35:34.050Z,22.83
2019-03-29T10:36:34.074Z,23.07
2019-03-29T10:37:34.027Z,23.19
2019-03-29T10:38:34.016Z,22.90
2019-03-29T10:39:35.629Z,22.60
2019-03-29T10:40:34.007Z,22.65
2019-03-29T10:41:37.762Z,22.68
2019-03-29T10:42:33.982Z,22.57
2019-03-29T10:43:34.008Z,22.43
2019-03-29T10:44:33.954Z,22.62
2019-03-29T10:45:39.550Z,22.90
2019-03-29T10:46:34.996Z,23.29
2019-03-29T10:47:43.071Z,23.90
2019-03-29T10:48:34.994Z,24.22
2019-03-29T10:49:33.902Z,24.71
2019-03-29T10:50:33.910Z,24.67
2019-03-29T10:51:33.905Z,24.88
2019-03-29T10:52:33.872Z,24.23
2019-03-29T10:53:33.860Z,24.24
2019-03-29T10:54:33.846Z,24.13
2019-03-29T10:55:33.835Z,24.80
2019-03-29T10:56:34.762Z,24.87
2019-03-29T10:57:33.826Z,24.80
2019-03-29T10:58:33.808Z,24.52
2019-03-29T10:59:33.801Z,24.68
2019-03-29T11:00:33.784Z,25.13
2019-03-29T11:01:33.822Z,25.15
2019-03-29T11:02:33.765Z,24.73
2019-03-29T11:03:33.775Z,25.16
2019-03-29T11:04:33.749Z,25.65
2019-03-29T11:05:33.746Z,26.04
2019-03-29T11:06:33.760Z,25.35
2019-03-29T11:07:33.711Z,24.94
2019-03-29T11:08:33.714Z,24.26
2019-03-29T11:09:36.849Z,23.94
2019-03-29T11:10:33.686Z,24.07
2019-03-29T11:11:33.703Z,24.61
2019-03-29T11:12:33.660Z,25.01
2019-03-29T11:13:33.662Z,24.67
2019-03-29T11:14:33.640Z,24.41
2019-03-29T11:15:33.645Z,24.42
2019-03-29T11:16:33.655Z,24.44
2019-03-29T11:17:33.606Z,24.76
2019-03-29T11:18:33.603Z,24.95
2019-03-29T11:19:33.595Z,25.47
2019-03-29T11:20:33.587Z,26.21
2019-03-29T11:21:33.609Z,26.67
2019-03-29T11:22:33.567Z,26.05
2019-03-29T11:23:33.552Z,25.10
2019-03-29T11:24:33.537Z,25.38
2019-03-29T11:25:33.528Z,25.91
2019-03-29T11:26:33.545Z,25.84
2019-03-29T11:27:33.541Z,25.87
2019-03-29T11:28:33.507Z,26.36
2019-03-29T11:29:33.718Z,25.86
2019-03-29T11:30:41.989Z,24.98
2019-03-29T11:31:34.465Z,24.83
2019-03-29T11:32:34.375Z,24.39
2019-03-29T11:33:33.551Z,24.76
2019-03-29T11:34:33.508Z,25.27
2019-03-29T11:35:33.461Z,25.82
2019-03-29T11:36:33.456Z,26.24
2019-03-29T11:37:33.404Z,26.58
2019-03-29T11:38:33.404Z,26.09
2019-03-29T11:39:33.384Z,26.12
2019-03-29T11:40:33.387Z,26.35
2019-03-29T11:41:33.398Z,26.61
2019-03-29T11:42:33.368Z,25.99
2019-03-29T11:43:33.358Z,25.83
2019-03-29T11:44:33.348Z,25.49
2019-03-29T11:45:33.332Z,25.44
2019-03-29T11:46:33.326Z,25.54
2019-03-29T11:47:33.351Z,25.44
2019-03-29T11:48:33.339Z,25.37
2019-03-29T11:49:33.287Z,25.77
2019-03-29T11:50:33.277Z,26.15
2019-03-29T11:51:33.266Z,25.44
2019-03-29T11:52:33.973Z,26.09
2019-03-29T11:53:33.241Z,26.74
2019-03-29T11:54:33.252Z,26.37
2019-03-29T11:55:33.232Z,26.39
2019-03-29T11:56:33.217Z,27.01
2019-03-29T11:57:33.242Z,26.81
2019-03-29T11:58:33.250Z,26.42
2019-03-29T11:59:33.197Z,26.29
2019-03-29T12:00:33.181Z,26.20
2019-03-29T12:01:33.166Z,25.89
2019-03-29T12:02:33.170Z,25.65
2019-03-29T12:03:33.191Z,25.68
2019-03-29T12:04:33.128Z,25.89
2019-03-29T12:05:36.057Z,26.77
2019-03-29T12:06:33.116Z,27.05
2019-03-29T12:07:33.135Z,27.53
2019-03-29T12:08:33.100Z,27.43
2019-03-29T12:09:33.086Z,27.24
2019-03-29T12:10:33.085Z,26.54
2019-03-29T12:11:33.099Z,25.87
2019-03-29T12:12:33.127Z,25.64
2019-03-29T12:13:41.107Z,26.01
2019-03-29T12:14:34.034Z,26.68
2019-03-29T12:15:33.828Z,27.10
2019-03-29T12:16:33.013Z,26.50
2019-03-29T12:17:33.011Z,26.31
2019-03-29T12:18:33.013Z,26.32
2019-03-29T12:19:32.982Z,26.72
2019-03-29T12:20:32.981Z,26.77
2019-03-29T12:21:32.962Z,27.50
2019-03-29T12:22:32.955Z,27.95
2019-03-29T12:23:32.946Z,27.26
2019-03-29T12:24:32.982Z,27.17
2019-03-29T12:25:32.928Z,27.26
2019-03-29T12:26:32.943Z,27.74
2019-03-29T12:27:33.806Z,27.51
2019-03-29T12:28:32.891Z,27.04
2019-03-29T12:29:32.914Z,26.42
2019-03-29T12:30:32.875Z,26.20
2019-03-29T12:31:32.866Z,26.43
2019-03-29T12:32:32.882Z,26.73
2019-03-29T12:33:32.858Z,26.80
2019-03-29T12:34:32.835Z,27.04
2019-03-29T12:35:32.824Z,26.46
2019-03-29T12:36:32.823Z,26.37
2019-03-29T12:37:32.825Z,27.04
2019-03-29T12:38:32.795Z,27.11
2019-03-29T12:39:32.784Z,26.80
2019-03-29T12:40:32.773Z,26.80
2019-03-29T12:41:32.792Z,27.19
2019-03-29T12:42:32.769Z,27.69
2019-03-29T12:43:32.777Z,27.74
2019-03-29T12:44:32.747Z,27.69
2019-03-29T12:45:32.837Z,28.11
2019-03-29T12:46:32.712Z,28.78
2019-03-29T12:47:32.700Z,29.35
2019-03-29T12:48:32.826Z,29.28
2019-03-29T12:49:32.687Z,28.43
2019-03-29T12:50:32.708Z,27.69
2019-03-29T12:51:32.669Z,27.91
2019-03-29T12:52:32.673Z,28.16
2019-03-29T12:53:32.651Z,28.35
2019-03-29T12:54:32.636Z,28.62
2019-03-29T12:55:32.884Z,28.41
2019-03-29T12:56:32.625Z,28.29
2019-03-29T12:57:32.640Z,28.63
2019-03-29T12:58:32.603Z,28.59
2019-03-29T12:59:33.051Z,28.28
2019-03-29T13:00:32.610Z,28.58
2019-03-29T13:01:39.340Z,28.16
2019-03-29T13:02:34.722Z,27.61
2019-03-29T13:03:32.570Z,27.67
2019-03-29T13:04:32.540Z,28.43
2019-03-29T13:05:32.572Z,28.85
2019-03-29T13:06:32.522Z,28.47